Mario Eduardo — CSVZ — position and weather

sailwx.info

Track history (hours):
 
Tides and Currents Weather Stations Pressure Air Temp Water Temp Dewpoint Dewpoint Depression Visibility Wind Speed Wind Dir Waves Ship Positions

Mario Eduardo

Last reported at 2017-Dec-04 10:30 UTC. Time now 2018-Jun-21 11:50 UTC.
Position N 36°56' W 008°09'.
Warning: this ship's position is months out of date.

Length 15 m.

Type: Fishing. MMSI: 263395000.

Date/timePositionNaut miles runAvg speedWind from/ knotsBaromVisibWave heightAir tempDewpointWater temp
2017-Dec-04 10:30N 36°56' W 008°09'1 2.3
2017-Dec-04 10:00N 36°56' W 008°10'1 2.4
2017-Dec-04 09:30N 36°57' W 008°11'1 2.3
2017-Dec-04 09:00N 36°58' W 008°12'1 2.3
2017-Dec-04 08:30N 36°59' W 008°13'1 2.2
2017-Dec-04 08:00N 36°59' W 008°15'1 1.4
2017-Dec-04 07:31N 36°59' W 008°14'1 2.5
2017-Dec-04 07:00N 36°59' W 008°12'1 2.5
2017-Dec-04 06:31N 36°58' W 008°11'  
2017-Dec-01 03:47N 36°55' W 008°08'1 2.4
2017-Dec-01 03:27N 36°56' W 008°09'1 2.5
2017-Dec-01 03:00N 36°56' W 008°10'1 2.5
2017-Dec-01 02:30N 36°57' W 008°11'1 2.4
2017-Dec-01 02:00N 36°58' W 008°13'1 2.5
2017-Dec-01 01:30N 36°58' W 008°14'2 3.1
2017-Dec-01 01:00N 36°58' W 008°16'1 1.5
2017-Dec-01 00:30N 36°59' W 008°15'1 2.3
2017-Dec-01 00:00N 36°59' W 008°14'1 2.3
2017-Nov-30 23:30N 36°58' W 008°12'1 2.3
2017-Nov-30 23:00N 36°58' W 008°11'1 2.4
2017-Nov-30 22:30N 36°57' W 008°10'1 2.4
2017-Nov-30 22:00N 36°56' W 008°09'1 1.1
2017-Nov-30 21:28N 36°55' W 008°09'1 2.4
2017-Nov-30 20:55N 36°57' W 008°09'1 2.4
2017-Nov-30 20:23N 36°58' W 008°10'1 2.4
2017-Nov-30 20:00N 36°58' W 008°11'1 2.4
2017-Nov-30 19:30N 36°58' W 008°13'1 2.5
2017-Nov-30 19:00N 36°59' W 008°14'1 2.4
2017-Nov-30 18:29N 36°58' W 008°16'1 1.4
2017-Nov-30 18:00N 36°58' W 008°15'1 2.4
2017-Nov-30 17:30N 36°58' W 008°14'1 2.4
2017-Nov-30 16:59N 36°58' W 008°12'1 2.4
2017-Nov-30 16:30N 36°57' W 008°11'1 2.4
2017-Nov-30 16:00N 36°57' W 008°10'1 2.4
2017-Nov-30 15:28N 36°56' W 008°09'2 2.1
2017-Nov-30 14:30N 36°56' W 008°06'1 1.7
2017-Nov-30 13:56N 36°55' W 008°07'1 2.3
2017-Nov-30 13:28N 36°56' W 008°08'1 2.5
2017-Nov-30 13:00N 36°56' W 008°09'1 2.5
2017-Nov-30 12:30N 36°57' W 008°10'1 2.4
2017-Nov-30 12:00N 36°58' W 008°12'1 2.5
2017-Nov-30 11:30N 36°58' W 008°13'1 2.5
2017-Nov-30 11:00N 36°59' W 008°15'0 0.2
2017-Nov-30 10:30N 36°59' W 008°15'1 2.4
2017-Nov-30 10:00N 36°59' W 008°13'1 2.4
2017-Nov-30 09:30N 36°58' W 008°12'1 2.3
2017-Nov-30 08:58N 36°58' W 008°10'1 2.3
2017-Nov-30 08:30N 36°58' W 008°09'2 1.0
2017-Nov-30 06:20N 36°57' W 008°07'1 2.5
2017-Nov-30 05:59N 36°57' W 008°08'1 2.5
2017-Nov-30 05:30N 36°58' W 008°09'1 2.5
2017-Nov-30 05:00N 36°59' W 008°10'1 2.5
2017-Nov-30 04:29N 36°59' W 008°12'1 2.5
2017-Nov-30 03:54N 36°59' W 008°14'1 2.5
2017-Nov-30 03:25N 36°58' W 008°15'0 1.1
2017-Nov-30 03:00N 36°58' W 008°16'1 2.4
2017-Nov-30 02:28N 36°59' W 008°14'1 2.3
2017-Nov-30 02:00N 36°59' W 008°13'1 2.4
2017-Nov-30 01:29N 36°58' W 008°11'1 2.4
2017-Nov-30 01:00N 36°57' W 008°10'1 2.3
2017-Nov-30 00:30N 36°57' W 008°09'  
Track history (hours):
 
Tides and Currents Weather Stations Pressure Air Temp Water Temp Dewpoint Dewpoint Depression Visibility Wind Speed Wind Dir Waves Ship Positions

Mario Eduardo

Last reported at 2017-Dec-04 10:30 UTC. Time now 2018-Jun-21 11:50 UTC.
Position N 36°56' W 008°09'.
Warning: this ship's position is months out of date.

Length 15 m.

Type: Fishing. MMSI: 263395000.

Date/timePositionNaut miles runAvg speedWind from/ knotsBaromVisibWave heightAir tempDewpointWater temp
2017-Dec-04 10:30N 36°56' W 008°09'1 2.3
2017-Dec-04 10:00N 36°56' W 008°10'1 2.4
2017-Dec-04 09:30N 36°57' W 008°11'1 2.3
2017-Dec-04 09:00N 36°58' W 008°12'1 2.3
2017-Dec-04 08:30N 36°59' W 008°13'1 2.2
2017-Dec-04 08:00N 36°59' W 008°15'1 1.4
2017-Dec-04 07:31N 36°59' W 008°14'1 2.5
2017-Dec-04 07:00N 36°59' W 008°12'1 2.5
2017-Dec-04 06:31N 36°58' W 008°11'  
2017-Dec-01 03:47N 36°55' W 008°08'1 2.4
2017-Dec-01 03:27N 36°56' W 008°09'1 2.5
2017-Dec-01 03:00N 36°56' W 008°10'1 2.5
2017-Dec-01 02:30N 36°57' W 008°11'1 2.4
2017-Dec-01 02:00N 36°58' W 008°13'1 2.5
2017-Dec-01 01:30N 36°58' W 008°14'2 3.1
2017-Dec-01 01:00N 36°58' W 008°16'1 1.5
2017-Dec-01 00:30N 36°59' W 008°15'1 2.3
2017-Dec-01 00:00N 36°59' W 008°14'1 2.3
2017-Nov-30 23:30N 36°58' W 008°12'1 2.3
2017-Nov-30 23:00N 36°58' W 008°11'1 2.4
2017-Nov-30 22:30N 36°57' W 008°10'1 2.4
2017-Nov-30 22:00N 36°56' W 008°09'1 1.1
2017-Nov-30 21:28N 36°55' W 008°09'1 2.4
2017-Nov-30 20:55N 36°57' W 008°09'1 2.4
2017-Nov-30 20:23N 36°58' W 008°10'1 2.4
2017-Nov-30 20:00N 36°58' W 008°11'1 2.4
2017-Nov-30 19:30N 36°58' W 008°13'1 2.5
2017-Nov-30 19:00N 36°59' W 008°14'1 2.4
2017-Nov-30 18:29N 36°58' W 008°16'1 1.4
2017-Nov-30 18:00N 36°58' W 008°15'1 2.4
2017-Nov-30 17:30N 36°58' W 008°14'1 2.4
2017-Nov-30 16:59N 36°58' W 008°12'1 2.4
2017-Nov-30 16:30N 36°57' W 008°11'1 2.4
2017-Nov-30 16:00N 36°57' W 008°10'1 2.4
2017-Nov-30 15:28N 36°56' W 008°09'2 2.1
2017-Nov-30 14:30N 36°56' W 008°06'1 1.7
2017-Nov-30 13:56N 36°55' W 008°07'1 2.3
2017-Nov-30 13:28N 36°56' W 008°08'1 2.5
2017-Nov-30 13:00N 36°56' W 008°09'1 2.5
2017-Nov-30 12:30N 36°57' W 008°10'1 2.4
2017-Nov-30 12:00N 36°58' W 008°12'1 2.5
2017-Nov-30 11:30N 36°58' W 008°13'1 2.5
2017-Nov-30 11:00N 36°59' W 008°15'0 0.2
2017-Nov-30 10:30N 36°59' W 008°15'1 2.4
2017-Nov-30 10:00N 36°59' W 008°13'1 2.4
2017-Nov-30 09:30N 36°58' W 008°12'1 2.3
2017-Nov-30 08:58N 36°58' W 008°10'1 2.3
2017-Nov-30 08:30N 36°58' W 008°09'2 1.0
2017-Nov-30 06:20N 36°57' W 008°07'1 2.5
2017-Nov-30 05:59N 36°57' W 008°08'1 2.5
2017-Nov-30 05:30N 36°58' W 008°09'1 2.5
2017-Nov-30 05:00N 36°59' W 008°10'1 2.5
2017-Nov-30 04:29N 36°59' W 008°12'1 2.5
2017-Nov-30 03:54N 36°59' W 008°14'1 2.5
2017-Nov-30 03:25N 36°58' W 008°15'0 1.1
2017-Nov-30 03:00N 36°58' W 008°16'1 2.4
2017-Nov-30 02:28N 36°59' W 008°14'1 2.3
2017-Nov-30 02:00N 36°59' W 008°13'1 2.4
2017-Nov-30 01:29N 36°58' W 008°11'1 2.4
2017-Nov-30 01:00N 36°57' W 008°10'1 2.3
2017-Nov-30 00:30N 36°57' W 008°09'  

Dump ship's entire track history